sensor_id;sensor_type;location;lat;lon;timestamp;P1;durP1;ratioP1;P2;durP2;ratioP2
25153;SDS011;47555;51.038;6.280;2023-02-03T00:00:16;9.73;;;5.32;;
25153;SDS011;47555;51.038;6.280;2023-02-03T00:02:41;10.20;;;5.57;;
25153;SDS011;47555;51.038;6.280;2023-02-03T00:05:07;10.43;;;5.10;;
25153;SDS011;47555;51.038;6.280;2023-02-03T00:07:33;10.73;;;5.78;;
25153;SDS011;47555;51.038;6.280;2023-02-03T00:10:00;9.27;;;5.28;;
25153;SDS011;47555;51.038;6.280;2023-02-03T00:12:25;10.55;;;5.93;;
25153;SDS011;47555;51.038;6.280;2023-02-03T00:14:51;10.07;;;5.05;;
25153;SDS011;47555;51.038;6.280;2023-02-03T00:17:16;10.82;;;5.18;;
25153;SDS011;47555;51.038;6.280;2023-02-03T00:19:42;11.82;;;5.10;;
25153;SDS011;47555;51.038;6.280;2023-02-03T00:22:07;8.73;;;5.40;;
25153;SDS011;47555;51.038;6.280;2023-02-03T00:24:33;8.75;;;4.75;;
25153;SDS011;47555;51.038;6.280;2023-02-03T00:26:58;7.07;;;4.15;;
25153;SDS011;47555;51.038;6.280;2023-02-03T00:29:24;8.75;;;4.30;;
25153;SDS011;47555;51.038;6.280;2023-02-03T00:31:50;9.27;;;4.50;;
25153;SDS011;47555;51.038;6.280;2023-02-03T00:34:17;7.75;;;3.97;;
25153;SDS011;47555;51.038;6.280;2023-02-03T00:36:42;14.10;;;5.13;;
25153;SDS011;47555;51.038;6.280;2023-02-03T00:39:10;10.88;;;4.28;;
25153;SDS011;47555;51.038;6.280;2023-02-03T00:41:36;9.50;;;4.50;;
25153;SDS011;47555;51.038;6.280;2023-02-03T00:44:01;13.77;;;4.70;;
25153;SDS011;47555;51.038;6.280;2023-02-03T00:46:27;11.95;;;4.13;;
25153;SDS011;47555;51.038;6.280;2023-02-03T00:48:52;12.38;;;4.60;;
25153;SDS011;47555;51.038;6.280;2023-02-03T00:51:18;11.45;;;4.65;;
25153;SDS011;47555;51.038;6.280;2023-02-03T00:53:43;11.45;;;4.90;;
25153;SDS011;47555;51.038;6.280;2023-02-03T00:56:09;11.85;;;3.90;;
25153;SDS011;47555;51.038;6.280;2023-02-03T00:58:37;11.52;;;3.60;;
25153;SDS011;47555;51.038;6.280;2023-02-03T01:01:06;10.88;;;4.40;;
25153;SDS011;47555;51.038;6.280;2023-02-03T01:03:32;8.70;;;3.67;;
25153;SDS011;47555;51.038;6.280;2023-02-03T01:06:08;8.90;;;4.05;;
25153;SDS011;47555;51.038;6.280;2023-02-03T01:08:35;8.18;;;4.65;;
25153;SDS011;47555;51.038;6.280;2023-02-03T01:11:05;8.88;;;3.88;;
25153;SDS011;47555;51.038;6.280;2023-02-03T01:13:31;7.50;;;3.67;;
25153;SDS011;47555;51.038;6.280;2023-02-03T01:15:57;7.65;;;3.85;;
25153;SDS011;47555;51.038;6.280;2023-02-03T01:18:22;6.32;;;3.58;;
25153;SDS011;47555;51.038;6.280;2023-02-03T01:20:48;6.55;;;3.70;;
25153;SDS011;47555;51.038;6.280;2023-02-03T01:23:13;8.48;;;3.90;;
25153;SDS011;47555;51.038;6.280;2023-02-03T01:25:39;8.80;;;3.47;;
25153;SDS011;47555;51.038;6.280;2023-02-03T01:28:04;7.63;;;3.58;;
25153;SDS011;47555;51.038;6.280;2023-02-03T01:30:30;9.52;;;3.85;;
25153;SDS011;47555;51.038;6.280;2023-02-03T01:32:55;9.23;;;4.13;;
25153;SDS011;47555;51.038;6.280;2023-02-03T01:35:21;7.65;;;3.70;;
25153;SDS011;47555;51.038;6.280;2023-02-03T01:37:46;5.55;;;3.22;;
25153;SDS011;47555;51.038;6.280;2023-02-03T01:40:12;11.68;;;4.18;;
25153;SDS011;47555;51.038;6.280;2023-02-03T01:42:37;4.85;;;3.00;;
25153;SDS011;47555;51.038;6.280;2023-02-03T01:45:03;8.55;;;3.28;;
25153;SDS011;47555;51.038;6.280;2023-02-03T01:47:33;9.25;;;3.72;;
25153;SDS011;47555;51.038;6.280;2023-02-03T01:50:10;8.80;;;3.78;;
25153;SDS011;47555;51.038;6.280;2023-02-03T01:52:41;10.57;;;3.53;;
25153;SDS011;47555;51.038;6.280;2023-02-03T01:55:09;11.77;;;3.70;;
25153;SDS011;47555;51.038;6.280;2023-02-03T01:57:40;7.68;;;4.00;;
25153;SDS011;47555;51.038;6.280;2023-02-03T02:00:15;6.47;;;3.10;;
25153;SDS011;47555;51.038;6.280;2023-02-03T02:02:41;8.77;;;3.65;;
25153;SDS011;47555;51.038;6.280;2023-02-03T02:05:27;6.50;;;3.38;;
25153;SDS011;47555;51.038;6.280;2023-02-03T02:07:59;7.80;;;2.83;;
25153;SDS011;47555;51.038;6.280;2023-02-03T02:10:28;7.05;;;3.08;;
25153;SDS011;47555;51.038;6.280;2023-02-03T02:12:55;7.63;;;3.70;;
25153;SDS011;47555;51.038;6.280;2023-02-03T02:15:23;10.68;;;3.97;;
25153;SDS011;47555;51.038;6.280;2023-02-03T02:18:18;7.32;;;3.40;;
25153;SDS011;47555;51.038;6.280;2023-02-03T02:23:40;7.20;;;3.60;;
25153;SDS011;47555;51.038;6.280;2023-02-03T02:35:02;8.40;;;3.53;;
25153;SDS011;47555;51.038;6.280;2023-02-03T02:37:52;9.20;;;4.05;;
25153;SDS011;47555;51.038;6.280;2023-02-03T02:42:58;8.52;;;3.70;;
25153;SDS011;47555;51.038;6.280;2023-02-03T02:45:50;6.15;;;3.55;;
25153;SDS011;47555;51.038;6.280;2023-02-03T02:49:20;10.05;;;4.30;;
25153;SDS011;47555;51.038;6.280;2023-02-03T02:51:27;12.13;;;3.45;;
25153;SDS011;47555;51.038;6.280;2023-02-03T02:53:56;7.03;;;3.70;;
25153;SDS011;47555;51.038;6.280;2023-02-03T02:56:24;6.28;;;4.15;;
25153;SDS011;47555;51.038;6.280;2023-02-03T02:58:55;8.25;;;3.92;;
25153;SDS011;47555;51.038;6.280;2023-02-03T03:01:22;10.57;;;3.92;;
25153;SDS011;47555;51.038;6.280;2023-02-03T03:03:47;8.57;;;4.68;;
25153;SDS011;47555;51.038;6.280;2023-02-03T03:06:21;11.45;;;4.45;;
25153;SDS011;47555;51.038;6.280;2023-02-03T03:08:53;9.20;;;4.13;;
25153;SDS011;47555;51.038;6.280;2023-02-03T03:11:23;11.27;;;4.35;;
25153;SDS011;47555;51.038;6.280;2023-02-03T03:13:52;7.25;;;3.70;;
25153;SDS011;47555;51.038;6.280;2023-02-03T03:16:21;10.48;;;4.07;;
25153;SDS011;47555;51.038;6.280;2023-02-03T03:18:51;12.57;;;4.22;;
25153;SDS011;47555;51.038;6.280;2023-02-03T03:21:24;9.30;;;4.67;;
25153;SDS011;47555;51.038;6.280;2023-02-03T03:23:54;11.05;;;4.53;;
25153;SDS011;47555;51.038;6.280;2023-02-03T03:26:26;6.38;;;3.70;;
25153;SDS011;47555;51.038;6.280;2023-02-03T03:29:06;8.57;;;4.60;;
25153;SDS011;47555;51.038;6.280;2023-02-03T03:31:38;11.75;;;3.95;;
25153;SDS011;47555;51.038;6.280;2023-02-03T03:34:04;6.97;;;3.92;;
25153;SDS011;47555;51.038;6.280;2023-02-03T03:36:36;10.60;;;3.88;;
25153;SDS011;47555;51.038;6.280;2023-02-03T03:39:22;6.72;;;3.75;;
25153;SDS011;47555;51.038;6.280;2023-02-03T03:42:06;7.53;;;4.07;;
25153;SDS011;47555;51.038;6.280;2023-02-03T03:44:47;9.73;;;4.30;;
25153;SDS011;47555;51.038;6.280;2023-02-03T03:47:20;7.95;;;3.67;;
25153;SDS011;47555;51.038;6.280;2023-02-03T03:49:51;12.43;;;3.75;;
25153;SDS011;47555;51.038;6.280;2023-02-03T03:52:20;6.20;;;3.78;;
25153;SDS011;47555;51.038;6.280;2023-02-03T03:54:48;11.20;;;4.28;;
25153;SDS011;47555;51.038;6.280;2023-02-03T03:57:22;9.88;;;4.47;;
25153;SDS011;47555;51.038;6.280;2023-02-03T04:02:45;6.18;;;3.30;;
25153;SDS011;47555;51.038;6.280;2023-02-03T04:05:16;11.35;;;5.00;;
25153;SDS011;47555;51.038;6.280;2023-02-03T04:07:43;9.98;;;3.58;;
25153;SDS011;47555;51.038;6.280;2023-02-03T04:10:15;9.38;;;3.80;;
25153;SDS011;47555;51.038;6.280;2023-02-03T04:12:51;7.65;;;3.75;;
25153;SDS011;47555;51.038;6.280;2023-02-03T04:15:16;9.63;;;3.90;;
25153;SDS011;47555;51.038;6.280;2023-02-03T04:17:42;6.75;;;3.65;;
25153;SDS011;47555;51.038;6.280;2023-02-03T04:20:07;6.80;;;3.83;;
25153;SDS011;47555;51.038;6.280;2023-02-03T04:22:33;10.18;;;3.63;;
25153;SDS011;47555;51.038;6.280;2023-02-03T04:24:59;9.50;;;3.60;;
25153;SDS011;47555;51.038;6.280;2023-02-03T04:27:25;8.75;;;4.00;;
25153;SDS011;47555;51.038;6.280;2023-02-03T04:29:51;9.35;;;3.33;;
25153;SDS011;47555;51.038;6.280;2023-02-03T04:32:16;6.70;;;4.00;;
25153;SDS011;47555;51.038;6.280;2023-02-03T04:34:42;6.70;;;3.25;;
25153;SDS011;47555;51.038;6.280;2023-02-03T04:37:08;11.57;;;3.42;;
25153;SDS011;47555;51.038;6.280;2023-02-03T04:39:33;5.85;;;2.88;;
25153;SDS011;47555;51.038;6.280;2023-02-03T04:41:59;6.15;;;3.10;;
25153;SDS011;47555;51.038;6.280;2023-02-03T04:44:24;5.45;;;2.63;;
25153;SDS011;47555;51.038;6.280;2023-02-03T04:46:50;7.53;;;2.85;;
25153;SDS011;47555;51.038;6.280;2023-02-03T04:49:15;6.47;;;2.88;;
25153;SDS011;47555;51.038;6.280;2023-02-03T04:51:41;4.93;;;2.50;;
25153;SDS011;47555;51.038;6.280;2023-02-03T04:54:08;14.23;;;3.60;;
25153;SDS011;47555;51.038;6.280;2023-02-03T04:56:34;7.72;;;2.90;;
25153;SDS011;47555;51.038;6.280;2023-02-03T04:59:00;5.78;;;2.53;;
25153;SDS011;47555;51.038;6.280;2023-02-03T05:01:25;11.80;;;3.30;;
25153;SDS011;47555;51.038;6.280;2023-02-03T05:03:51;10.18;;;2.72;;
25153;SDS011;47555;51.038;6.280;2023-02-03T05:06:16;8.75;;;3.22;;
25153;SDS011;47555;51.038;6.280;2023-02-03T05:08:46;11.52;;;3.75;;
25153;SDS011;47555;51.038;6.280;2023-02-03T05:11:11;7.20;;;3.17;;
25153;SDS011;47555;51.038;6.280;2023-02-03T05:13:36;6.80;;;2.30;;
25153;SDS011;47555;51.038;6.280;2023-02-03T05:16:02;5.03;;;2.35;;
25153;SDS011;47555;51.038;6.280;2023-02-03T05:18:28;8.07;;;2.67;;
25153;SDS011;47555;51.038;6.280;2023-02-03T05:20:53;4.68;;;2.80;;
25153;SDS011;47555;51.038;6.280;2023-02-03T05:23:19;5.53;;;2.10;;
25153;SDS011;47555;51.038;6.280;2023-02-03T05:25:44;11.95;;;3.03;;
25153;SDS011;47555;51.038;6.280;2023-02-03T05:28:10;5.30;;;2.00;;
25153;SDS011;47555;51.038;6.280;2023-02-03T05:30:35;3.13;;;2.10;;
25153;SDS011;47555;51.038;6.280;2023-02-03T05:33:01;8.95;;;2.30;;
25153;SDS011;47555;51.038;6.280;2023-02-03T05:35:27;6.20;;;2.28;;
25153;SDS011;47555;51.038;6.280;2023-02-03T05:37:52;7.68;;;2.08;;
25153;SDS011;47555;51.038;6.280;2023-02-03T05:40:18;4.47;;;1.75;;
25153;SDS011;47555;51.038;6.280;2023-02-03T05:43:02;9.05;;;2.03;;
25153;SDS011;47555;51.038;6.280;2023-02-03T05:45:27;5.10;;;1.60;;
25153;SDS011;47555;51.038;6.280;2023-02-03T05:47:53;5.45;;;2.00;;
25153;SDS011;47555;51.038;6.280;2023-02-03T05:50:18;7.22;;;2.30;;
25153;SDS011;47555;51.038;6.280;2023-02-03T05:52:44;6.30;;;1.98;;
25153;SDS011;47555;51.038;6.280;2023-02-03T05:55:09;5.28;;;1.60;;
25153;SDS011;47555;51.038;6.280;2023-02-03T05:57:35;7.90;;;1.95;;
25153;SDS011;47555;51.038;6.280;2023-02-03T06:00:01;5.72;;;2.00;;
25153;SDS011;47555;51.038;6.280;2023-02-03T06:02:26;5.40;;;1.90;;
25153;SDS011;47555;51.038;6.280;2023-02-03T06:04:52;4.20;;;1.98;;
25153;SDS011;47555;51.038;6.280;2023-02-03T06:07:17;6.97;;;1.73;;
25153;SDS011;47555;51.038;6.280;2023-02-03T06:09:43;5.80;;;2.10;;
25153;SDS011;47555;51.038;6.280;2023-02-03T06:12:09;6.22;;;2.13;;
25153;SDS011;47555;51.038;6.280;2023-02-03T06:14:34;3.92;;;1.63;;
25153;SDS011;47555;51.038;6.280;2023-02-03T06:17:00;5.63;;;2.00;;
25153;SDS011;47555;51.038;6.280;2023-02-03T06:19:25;9.75;;;2.05;;
25153;SDS011;47555;51.038;6.280;2023-02-03T06:21:51;6.28;;;1.85;;
25153;SDS011;47555;51.038;6.280;2023-02-03T06:24:16;5.85;;;1.65;;
25153;SDS011;47555;51.038;6.280;2023-02-03T06:26:42;5.50;;;1.60;;
25153;SDS011;47555;51.038;6.280;2023-02-03T06:29:07;2.80;;;1.60;;
25153;SDS011;47555;51.038;6.280;2023-02-03T06:31:32;5.63;;;1.58;;
25153;SDS011;47555;51.038;6.280;2023-02-03T06:33:58;3.72;;;1.80;;
25153;SDS011;47555;51.038;6.280;2023-02-03T06:36:26;3.45;;;1.73;;
25153;SDS011;47555;51.038;6.280;2023-02-03T06:38:52;5.80;;;1.67;;
25153;SDS011;47555;51.038;6.280;2023-02-03T06:41:17;4.90;;;1.70;;
25153;SDS011;47555;51.038;6.280;2023-02-03T06:43:43;3.85;;;1.60;;
25153;SDS011;47555;51.038;6.280;2023-02-03T06:46:09;4.05;;;1.42;;
25153;SDS011;47555;51.038;6.280;2023-02-03T06:48:34;5.15;;;1.67;;
25153;SDS011;47555;51.038;6.280;2023-02-03T06:51:00;4.75;;;1.63;;
25153;SDS011;47555;51.038;6.280;2023-02-03T06:53:25;4.63;;;1.50;;
25153;SDS011;47555;51.038;6.280;2023-02-03T06:55:51;4.80;;;1.85;;
25153;SDS011;47555;51.038;6.280;2023-02-03T06:58:16;5.30;;;1.63;;
25153;SDS011;47555;51.038;6.280;2023-02-03T07:00:42;3.90;;;1.40;;
25153;SDS011;47555;51.038;6.280;2023-02-03T07:03:07;7.40;;;1.80;;
25153;SDS011;47555;51.038;6.280;2023-02-03T07:05:33;8.00;;;1.80;;
25153;SDS011;47555;51.038;6.280;2023-02-03T07:08:00;6.07;;;1.88;;
25153;SDS011;47555;51.038;6.280;2023-02-03T07:10:26;3.72;;;1.50;;
25153;SDS011;47555;51.038;6.280;2023-02-03T07:12:51;5.03;;;1.42;;
25153;SDS011;47555;51.038;6.280;2023-02-03T07:15:17;3.95;;;1.50;;
25153;SDS011;47555;51.038;6.280;2023-02-03T07:17:43;5.53;;;1.50;;
25153;SDS011;47555;51.038;6.280;2023-02-03T07:20:10;4.90;;;1.75;;
25153;SDS011;47555;51.038;6.280;2023-02-03T07:22:36;5.88;;;1.40;;
25153;SDS011;47555;51.038;6.280;2023-02-03T07:25:03;4.32;;;1.52;;
25153;SDS011;47555;51.038;6.280;2023-02-03T07:27:29;5.18;;;1.38;;
25153;SDS011;47555;51.038;6.280;2023-02-03T07:29:54;4.15;;;1.50;;
25153;SDS011;47555;51.038;6.280;2023-02-03T07:32:20;5.65;;;1.58;;
25153;SDS011;47555;51.038;6.280;2023-02-03T07:34:45;4.53;;;1.52;;
25153;SDS011;47555;51.038;6.280;2023-02-03T07:37:11;5.88;;;1.52;;
25153;SDS011;47555;51.038;6.280;2023-02-03T07:39:36;6.10;;;1.48;;
25153;SDS011;47555;51.038;6.280;2023-02-03T07:42:02;7.03;;;1.52;;
25153;SDS011;47555;51.038;6.280;2023-02-03T07:44:27;3.20;;;1.23;;
25153;SDS011;47555;51.038;6.280;2023-02-03T07:46:53;6.00;;;1.70;;
25153;SDS011;47555;51.038;6.280;2023-02-03T07:49:18;3.60;;;1.30;;
25153;SDS011;47555;51.038;6.280;2023-02-03T07:51:44;5.00;;;1.33;;
25153;SDS011;47555;51.038;6.280;2023-02-03T07:54:09;4.30;;;1.30;;
25153;SDS011;47555;51.038;6.280;2023-02-03T07:56:35;4.93;;;1.50;;
25153;SDS011;47555;51.038;6.280;2023-02-03T07:59:00;3.25;;;1.50;;
25153;SDS011;47555;51.038;6.280;2023-02-03T08:01:26;2.88;;;1.50;;
25153;SDS011;47555;51.038;6.280;2023-02-03T08:03:52;5.13;;;1.25;;
25153;SDS011;47555;51.038;6.280;2023-02-03T08:06:18;7.97;;;1.65;;
25153;SDS011;47555;51.038;6.280;2023-02-03T08:08:43;7.55;;;1.48;;
25153;SDS011;47555;51.038;6.280;2023-02-03T08:11:09;4.35;;;1.30;;
25153;SDS011;47555;51.038;6.280;2023-02-03T08:13:35;4.13;;;1.10;;
25153;SDS011;47555;51.038;6.280;2023-02-03T08:16:00;2.92;;;1.20;;
25153;SDS011;47555;51.038;6.280;2023-02-03T08:18:26;3.63;;;1.20;;
25153;SDS011;47555;51.038;6.280;2023-02-03T08:20:51;2.25;;;1.20;;
25153;SDS011;47555;51.038;6.280;2023-02-03T08:23:17;6.10;;;1.48;;
25153;SDS011;47555;51.038;6.280;2023-02-03T08:25:42;4.57;;;1.00;;
25153;SDS011;47555;51.038;6.280;2023-02-03T08:28:08;5.03;;;1.40;;
25153;SDS011;47555;51.038;6.280;2023-02-03T08:30:33;4.13;;;1.45;;
25153;SDS011;47555;51.038;6.280;2023-02-03T08:32:59;4.93;;;1.65;;
25153;SDS011;47555;51.038;6.280;2023-02-03T08:35:24;3.45;;;1.15;;
25153;SDS011;47555;51.038;6.280;2023-02-03T08:37:51;8.93;;;3.15;;
25153;SDS011;47555;51.038;6.280;2023-02-03T08:40:17;3.78;;;1.00;;
25153;SDS011;47555;51.038;6.280;2023-02-03T08:42:42;4.57;;;1.38;;
25153;SDS011;47555;51.038;6.280;2023-02-03T08:45:08;2.92;;;1.30;;
25153;SDS011;47555;51.038;6.280;2023-02-03T08:47:34;4.47;;;1.75;;
25153;SDS011;47555;51.038;6.280;2023-02-03T08:50:04;4.18;;;1.50;;
25153;SDS011;47555;51.038;6.280;2023-02-03T08:52:31;2.10;;;1.45;;
25153;SDS011;47555;51.038;6.280;2023-02-03T08:54:57;4.00;;;1.65;;
25153;SDS011;47555;51.038;6.280;2023-02-03T08:57:22;2.17;;;1.52;;
25153;SDS011;47555;51.038;6.280;2023-02-03T08:59:48;3.72;;;1.30;;
25153;SDS011;47555;51.038;6.280;2023-02-03T09:02:16;4.88;;;1.85;;
25153;SDS011;47555;51.038;6.280;2023-02-03T09:04:43;2.65;;;1.50;;
25153;SDS011;47555;51.038;6.280;2023-02-03T09:07:10;4.70;;;1.60;;
25153;SDS011;47555;51.038;6.280;2023-02-03T09:09:36;5.22;;;1.60;;
25153;SDS011;47555;51.038;6.280;2023-02-03T09:12:02;2.03;;;1.50;;
25153;SDS011;47555;51.038;6.280;2023-02-03T09:14:30;7.22;;;1.70;;
25153;SDS011;47555;51.038;6.280;2023-02-03T09:16:57;3.97;;;1.40;;
25153;SDS011;47555;51.038;6.280;2023-02-03T09:19:23;5.35;;;1.95;;
25153;SDS011;47555;51.038;6.280;2023-02-03T09:21:49;7.70;;;1.80;;
25153;SDS011;47555;51.038;6.280;2023-02-03T09:24:16;4.78;;;1.60;;
25153;SDS011;47555;51.038;6.280;2023-02-03T09:26:42;3.92;;;1.40;;
25153;SDS011;47555;51.038;6.280;2023-02-03T09:29:08;4.30;;;2.08;;
25153;SDS011;47555;51.038;6.280;2023-02-03T09:31:33;4.25;;;2.00;;
25153;SDS011;47555;51.038;6.280;2023-02-03T09:33:59;3.70;;;1.95;;
25153;SDS011;47555;51.038;6.280;2023-02-03T09:36:25;6.72;;;2.10;;
25153;SDS011;47555;51.038;6.280;2023-02-03T09:38:50;3.33;;;1.88;;
25153;SDS011;47555;51.038;6.280;2023-02-03T09:46:49;4.65;;;1.95;;
25153;SDS011;47555;51.038;6.280;2023-02-03T09:49:34;6.22;;;2.20;;
25153;SDS011;47555;51.038;6.280;2023-02-03T09:52:12;5.10;;;2.15;;
25153;SDS011;47555;51.038;6.280;2023-02-03T09:57:46;3.80;;;2.13;;
25153;SDS011;47555;51.038;6.280;2023-02-03T10:00:20;11.63;;;2.85;;
25153;SDS011;47555;51.038;6.280;2023-02-03T10:02:54;5.32;;;2.17;;
25153;SDS011;47555;51.038;6.280;2023-02-03T10:05:33;5.18;;;2.40;;
25153;SDS011;47555;51.038;6.280;2023-02-03T10:08:17;5.97;;;2.65;;
25153;SDS011;47555;51.038;6.280;2023-02-03T10:13:42;6.28;;;2.85;;
25153;SDS011;47555;51.038;6.280;2023-02-03T10:16:27;4.45;;;2.42;;
25153;SDS011;47555;51.038;6.280;2023-02-03T10:18:58;5.47;;;2.60;;
25153;SDS011;47555;51.038;6.280;2023-02-03T10:21:31;5.72;;;3.08;;
25153;SDS011;47555;51.038;6.280;2023-02-03T10:24:01;4.90;;;2.70;;
25153;SDS011;47555;51.038;6.280;2023-02-03T10:26:29;6.97;;;3.00;;
25153;SDS011;47555;51.038;6.280;2023-02-03T10:29:03;8.38;;;3.30;;
25153;SDS011;47555;51.038;6.280;2023-02-03T10:31:38;7.57;;;4.72;;
25153;SDS011;47555;51.038;6.280;2023-02-03T10:34:12;5.18;;;3.08;;
25153;SDS011;47555;51.038;6.280;2023-02-03T10:42:12;9.85;;;3.88;;
25153;SDS011;47555;51.038;6.280;2023-02-03T10:44:42;9.15;;;3.60;;
25153;SDS011;47555;51.038;6.280;2023-02-03T10:49:44;9.18;;;4.22;;
25153;SDS011;47555;51.038;6.280;2023-02-03T10:52:23;9.27;;;3.88;;
25153;SDS011;47555;51.038;6.280;2023-02-03T10:54:54;10.27;;;4.45;;
25153;SDS011;47555;51.038;6.280;2023-02-03T10:57:20;10.05;;;4.50;;
25153;SDS011;47555;51.038;6.280;2023-02-03T10:59:47;11.45;;;4.80;;
25153;SDS011;47555;51.038;6.280;2023-02-03T11:02:23;9.23;;;4.57;;
25153;SDS011;47555;51.038;6.280;2023-02-03T11:07:40;8.43;;;5.68;;
25153;SDS011;47555;51.038;6.280;2023-02-03T11:12:51;8.77;;;5.47;;
25153;SDS011;47555;51.038;6.280;2023-02-03T11:15:34;10.90;;;5.55;;
25153;SDS011;47555;51.038;6.280;2023-02-03T11:17:59;13.10;;;6.00;;
25153;SDS011;47555;51.038;6.280;2023-02-03T11:20:25;10.35;;;5.55;;
25153;SDS011;47555;51.038;6.280;2023-02-03T11:22:53;11.73;;;5.35;;
25153;SDS011;47555;51.038;6.280;2023-02-03T11:25:19;7.40;;;4.65;;
25153;SDS011;47555;51.038;6.280;2023-02-03T11:27:56;9.43;;;5.80;;
25153;SDS011;47555;51.038;6.280;2023-02-03T11:30:29;10.35;;;5.88;;
25153;SDS011;47555;51.038;6.280;2023-02-03T11:32:54;8.07;;;5.47;;
25153;SDS011;47555;51.038;6.280;2023-02-03T11:35:25;11.52;;;6.07;;
25153;SDS011;47555;51.038;6.280;2023-02-03T11:37:54;12.98;;;6.22;;
25153;SDS011;47555;51.038;6.280;2023-02-03T11:40:31;11.75;;;5.53;;
25153;SDS011;47555;51.038;6.280;2023-02-03T11:45:38;10.35;;;6.20;;
25153;SDS011;47555;51.038;6.280;2023-02-03T11:48:17;13.45;;;6.13;;
25153;SDS011;47555;51.038;6.280;2023-02-03T12:05:13;12.35;;;6.32;;
25153;SDS011;47555;51.038;6.280;2023-02-03T12:07:52;11.77;;;5.80;;
25153;SDS011;47555;51.038;6.280;2023-02-03T12:23:59;10.57;;;6.45;;
25153;SDS011;47555;51.038;6.280;2023-02-03T12:26:37;10.07;;;6.85;;
25153;SDS011;47555;51.038;6.280;2023-02-03T12:29:21;13.55;;;7.13;;
25153;SDS011;47555;51.038;6.280;2023-02-03T12:31:50;13.02;;;6.53;;
25153;SDS011;47555;51.038;6.280;2023-02-03T12:34:46;11.23;;;7.00;;
25153;SDS011;47555;51.038;6.280;2023-02-03T12:40:14;11.50;;;6.65;;
25153;SDS011;47555;51.038;6.280;2023-02-03T12:42:53;13.45;;;7.68;;
25153;SDS011;47555;51.038;6.280;2023-02-03T12:45:33;13.68;;;7.78;;
25153;SDS011;47555;51.038;6.280;2023-02-03T12:48:02;16.92;;;8.18;;
25153;SDS011;47555;51.038;6.280;2023-02-03T12:50:41;14.73;;;8.13;;
25153;SDS011;47555;51.038;6.280;2023-02-03T12:55:41;13.18;;;7.68;;
25153;SDS011;47555;51.038;6.280;2023-02-03T12:58:27;15.85;;;7.97;;
25153;SDS011;47555;51.038;6.280;2023-02-03T13:01:21;13.43;;;7.35;;
25153;SDS011;47555;51.038;6.280;2023-02-03T13:14:34;11.73;;;7.35;;
25153;SDS011;47555;51.038;6.280;2023-02-03T13:19:52;11.00;;;6.72;;
25153;SDS011;47555;51.038;6.280;2023-02-03T13:22:22;12.13;;;7.43;;
25153;SDS011;47555;51.038;6.280;2023-02-03T13:24:51;10.55;;;7.18;;
25153;SDS011;47555;51.038;6.280;2023-02-03T13:27:35;9.65;;;6.75;;
25153;SDS011;47555;51.038;6.280;2023-02-03T13:30:26;13.38;;;6.57;;
25153;SDS011;47555;51.038;6.280;2023-02-03T13:36:40;12.48;;;6.60;;
25153;SDS011;47555;51.038;6.280;2023-02-03T13:44:40;8.95;;;5.47;;
25153;SDS011;47555;51.038;6.280;2023-02-03T13:47:12;9.65;;;6.15;;
25153;SDS011;47555;51.038;6.280;2023-02-03T13:49:43;9.95;;;5.80;;
25153;SDS011;47555;51.038;6.280;2023-02-03T13:52:32;10.95;;;6.00;;
25153;SDS011;47555;51.038;6.280;2023-02-03T13:55:00;9.75;;;6.00;;
25153;SDS011;47555;51.038;6.280;2023-02-03T13:57:30;10.02;;;5.68;;
25153;SDS011;47555;51.038;6.280;2023-02-03T14:00:02;9.43;;;4.97;;
25153;SDS011;47555;51.038;6.280;2023-02-03T14:02:37;7.60;;;5.32;;
25153;SDS011;47555;51.038;6.280;2023-02-03T14:05:06;13.25;;;5.68;;
25153;SDS011;47555;51.038;6.280;2023-02-03T14:07:53;9.32;;;5.15;;
25153;SDS011;47555;51.038;6.280;2023-02-03T14:10:19;11.73;;;4.53;;
25153;SDS011;47555;51.038;6.280;2023-02-03T14:23:13;9.23;;;3.75;;
25153;SDS011;47555;51.038;6.280;2023-02-03T14:25:45;10.88;;;4.03;;
25153;SDS011;47555;51.038;6.280;2023-02-03T14:28:17;8.45;;;4.10;;
25153;SDS011;47555;51.038;6.280;2023-02-03T14:31:10;10.70;;;4.05;;
25153;SDS011;47555;51.038;6.280;2023-02-03T14:33:44;6.57;;;4.10;;
25153;SDS011;47555;51.038;6.280;2023-02-03T14:53:23;9.57;;;4.03;;
25153;SDS011;47555;51.038;6.280;2023-02-03T14:56:06;6.45;;;3.70;;
25153;SDS011;47555;51.038;6.280;2023-02-03T14:58:52;6.53;;;3.20;;
25153;SDS011;47555;51.038;6.280;2023-02-03T15:01:26;8.25;;;3.80;;
25153;SDS011;47555;51.038;6.280;2023-02-03T15:06:56;7.93;;;3.88;;
25153;SDS011;47555;51.038;6.280;2023-02-03T15:09:25;5.40;;;3.50;;
25153;SDS011;47555;51.038;6.280;2023-02-03T15:11:51;10.88;;;4.20;;
25153;SDS011;47555;51.038;6.280;2023-02-03T15:14:27;5.85;;;3.60;;
25153;SDS011;47555;51.038;6.280;2023-02-03T15:17:09;8.30;;;3.85;;
25153;SDS011;47555;51.038;6.280;2023-02-03T15:19:38;5.18;;;3.40;;
25153;SDS011;47555;51.038;6.280;2023-02-03T15:22:22;9.68;;;4.20;;
25153;SDS011;47555;51.038;6.280;2023-02-03T15:24:56;9.27;;;3.78;;
25153;SDS011;47555;51.038;6.280;2023-02-03T15:27:27;8.32;;;3.92;;
25153;SDS011;47555;51.038;6.280;2023-02-03T15:29:54;7.22;;;3.78;;
25153;SDS011;47555;51.038;6.280;2023-02-03T15:32:24;10.02;;;3.85;;
25153;SDS011;47555;51.038;6.280;2023-02-03T15:34:58;7.57;;;4.13;;
25153;SDS011;47555;51.038;6.280;2023-02-03T15:40:20;11.43;;;4.20;;
25153;SDS011;47555;51.038;6.280;2023-02-03T15:42:52;5.65;;;3.38;;
25153;SDS011;47555;51.038;6.280;2023-02-03T15:45:31;8.85;;;4.07;;
25153;SDS011;47555;51.038;6.280;2023-02-03T15:48:04;8.63;;;4.53;;
25153;SDS011;47555;51.038;6.280;2023-02-03T15:50:41;7.13;;;3.97;;
25153;SDS011;47555;51.038;6.280;2023-02-03T15:53:30;8.18;;;4.50;;
25153;SDS011;47555;51.038;6.280;2023-02-03T15:56:00;8.38;;;4.40;;
25153;SDS011;47555;51.038;6.280;2023-02-03T15:58:31;8.68;;;4.68;;
25153;SDS011;47555;51.038;6.280;2023-02-03T16:03:39;4.78;;;3.78;;
25153;SDS011;47555;51.038;6.280;2023-02-03T16:06:15;9.63;;;4.70;;
25153;SDS011;47555;51.038;6.280;2023-02-03T16:08:46;11.88;;;5.25;;
25153;SDS011;47555;51.038;6.280;2023-02-03T16:13:45;9.40;;;4.70;;
25153;SDS011;47555;51.038;6.280;2023-02-03T16:16:14;13.82;;;5.18;;
25153;SDS011;47555;51.038;6.280;2023-02-03T16:18:41;9.55;;;4.57;;
25153;SDS011;47555;51.038;6.280;2023-02-03T16:21:28;11.40;;;4.35;;
25153;SDS011;47555;51.038;6.280;2023-02-03T16:23:59;11.95;;;4.93;;
25153;SDS011;47555;51.038;6.280;2023-02-03T16:26:27;6.35;;;4.72;;
25153;SDS011;47555;51.038;6.280;2023-02-03T16:31:51;9.63;;;4.55;;
25153;SDS011;47555;51.038;6.280;2023-02-03T16:34:35;9.10;;;4.53;;
25153;SDS011;47555;51.038;6.280;2023-02-03T16:37:24;11.43;;;6.20;;
25153;SDS011;47555;51.038;6.280;2023-02-03T16:40:25;8.43;;;4.70;;
25153;SDS011;47555;51.038;6.280;2023-02-03T16:43:10;8.13;;;5.18;;
25153;SDS011;47555;51.038;6.280;2023-02-03T16:45:56;11.50;;;5.32;;
25153;SDS011;47555;51.038;6.280;2023-02-03T16:48:42;10.77;;;4.95;;
25153;SDS011;47555;51.038;6.280;2023-02-03T16:51:28;13.45;;;6.53;;
25153;SDS011;47555;51.038;6.280;2023-02-03T16:54:04;13.30;;;6.35;;
25153;SDS011;47555;51.038;6.280;2023-02-03T16:56:31;12.85;;;6.55;;
25153;SDS011;47555;51.038;6.280;2023-02-03T16:58:56;14.93;;;5.50;;
25153;SDS011;47555;51.038;6.280;2023-02-03T17:01:22;11.73;;;6.03;;
25153;SDS011;47555;51.038;6.280;2023-02-03T17:03:47;11.98;;;5.50;;
25153;SDS011;47555;51.038;6.280;2023-02-03T17:06:13;13.65;;;6.05;;
25153;SDS011;47555;51.038;6.280;2023-02-03T17:08:39;10.85;;;4.78;;
25153;SDS011;47555;51.038;6.280;2023-02-03T17:11:12;9.98;;;5.00;;
25153;SDS011;47555;51.038;6.280;2023-02-03T17:13:39;11.38;;;5.32;;
25153;SDS011;47555;51.038;6.280;2023-02-03T17:16:07;9.45;;;4.95;;
25153;SDS011;47555;51.038;6.280;2023-02-03T17:18:34;16.13;;;4.63;;
25153;SDS011;47555;51.038;6.280;2023-02-03T17:21:04;8.68;;;4.50;;